Time;durP1;ratioP1;P1;durP2;ratioP2;P2;SDS_P1;SDS_P2;PMS_P1;PMS_P2;Temp;Humidity;BMP_temperature;BMP_pressure;BME280_temperature;BME280_humidity;BME280_pressure;Samples;Min_cycle;Max_cycle;Signal;HPM_P1;HPM_P2
2022/04/24 00:02:17;;;;;;;1.80;1.10;;;4.60;99.90;;;;;;4956343;28;20522;-78
2022/04/24 00:04:46;;;;;;;1.92;0.93;;;4.60;99.90;;;;;;4972313;28;20054;-78
2022/04/24 00:07:13;;;;;;;1.23;1.10;;;4.60;99.90;;;;;;4972673;28;20062;-78
2022/04/24 00:09:41;;;;;;;1.48;1.08;;;4.60;99.90;;;;;;4974331;28;20105;-77
2022/04/24 00:12:15;;;;;;;1.90;1.02;;;4.60;99.90;;;;;;4974111;28;20051;-78
2022/04/24 00:14:43;;;;;;;4.72;1.08;;;4.60;99.90;;;;;;4989571;28;20057;-76
2022/04/24 00:17:11;;;;;;;1.30;1.20;;;4.60;99.90;;;;;;4972544;28;20114;-77
2022/04/24 00:19:38;;;;;;;2.90;1.70;;;4.60;99.90;;;;;;4974168;28;20510;-78
2022/04/24 00:22:06;;;;;;;1.38;1.20;;;4.50;99.90;;;;;;4972352;28;20070;-77
2022/04/24 00:24:33;;;;;;;1.70;1.55;;;4.60;99.90;;;;;;4973565;28;20047;-76
2022/04/24 00:27:01;;;;;;;1.65;1.40;;;4.50;99.90;;;;;;4967687;28;20050;-77
2022/04/24 00:29:30;;;;;;;1.33;1.23;;;4.60;99.90;;;;;;4973758;28;20105;-76
2022/04/24 00:31:57;;;;;;;3.58;1.60;;;4.60;99.90;;;;;;4972903;28;20428;-77
2022/04/24 00:34:25;;;;;;;3.75;1.30;;;4.60;99.90;;;;;;4972093;28;20511;-76
2022/04/24 00:36:52;;;;;;;2.13;1.90;;;4.60;99.90;;;;;;4972845;28;20051;-76
2022/04/24 00:39:20;;;;;;;1.50;1.20;;;4.60;99.90;;;;;;4972935;28;20432;-77
2022/04/24 00:41:48;;;;;;;1.38;1.27;;;4.60;99.90;;;;;;4955798;28;20054;-76
2022/04/24 00:44:17;;;;;;;1.55;1.30;;;4.60;99.90;;;;;;4972119;28;20137;-75
2022/04/24 00:46:58;;;;;;;1.75;1.30;;;4.70;99.90;;;;;;4972236;28;20475;-75
2022/04/24 00:49:26;;;;;;;2.08;1.38;;;4.70;99.90;;;;;;4963327;28;20073;-76
2022/04/24 00:51:54;;;;;;;2.22;1.60;;;4.80;99.90;;;;;;4971710;28;20058;-76
2022/04/24 00:54:21;;;;;;;2.25;1.63;;;4.80;99.90;;;;;;4974325;28;20058;-76
2022/04/24 00:56:49;;;;;;;3.22;1.60;;;4.80;99.90;;;;;;4969225;28;20142;-76
2022/04/24 00:59:17;;;;;;;3.42;1.67;;;4.80;99.90;;;;;;4957301;28;20138;-76
2022/04/24 01:01:45;;;;;;;1.50;1.40;;;4.90;99.90;;;;;;4968758;28;20074;-76
2022/04/24 01:04:14;;;;;;;2.35;1.70;;;4.90;99.90;;;;;;4958981;28;20053;-76
2022/04/24 01:06:43;;;;;;;5.22;1.58;;;4.90;99.90;;;;;;4972878;28;20423;-76
2022/04/24 01:09:17;;;;;;;2.70;1.60;;;4.90;99.90;;;;;;4972970;28;20510;-76
2022/04/24 01:11:47;;;;;;;1.98;1.52;;;5.00;99.90;;;;;;4972108;28;20050;-76
2022/04/24 01:14:16;;;;;;;1.60;1.48;;;5.00;99.90;;;;;;4955335;28;20547;-76
2022/04/24 01:16:45;;;;;;;2.95;1.80;;;5.00;99.90;;;;;;4972901;28;20086;-76
2022/04/24 01:19:14;;;;;;;2.05;1.50;;;5.00;99.90;;;;;;4971608;28;20054;-76
2022/04/24 01:21:45;;;;;;;2.97;1.45;;;5.10;99.90;;;;;;4971691;28;20124;-77
2022/04/24 01:24:16;;;;;;;2.40;1.88;;;5.10;99.90;;;;;;4972766;28;20054;-77
2022/04/24 01:26:43;;;;;;;2.78;1.40;;;5.00;99.90;;;;;;4953404;29;20043;-77
2022/04/24 01:29:11;;;;;;;2.13;1.35;;;5.00;99.90;;;;;;4959270;28;20078;-76
2022/04/24 01:31:40;;;;;;;3.55;1.90;;;5.00;99.90;;;;;;4972644;28;20058;-77
2022/04/24 01:34:07;;;;;;;3.22;1.58;;;5.00;99.90;;;;;;4971168;28;20055;-78
2022/04/24 01:36:35;;;;;;;2.35;1.42;;;5.00;99.90;;;;;;4971458;28;20109;-78
2022/04/24 01:39:04;;;;;;;1.77;1.67;;;5.00;99.90;;;;;;4978929;28;20141;-78
2022/04/24 01:41:32;;;;;;;4.45;1.90;;;4.90;99.90;;;;;;4971724;28;20109;-78
2022/04/24 01:44:00;;;;;;;2.03;1.83;;;4.90;99.90;;;;;;4970812;28;20078;-76
2022/04/24 01:46:28;;;;;;;2.63;1.83;;;4.90;99.90;;;;;;4984032;28;20427;-76
2022/04/24 01:48:55;;;;;;;2.05;1.48;;;5.00;99.90;;;;;;4971363;28;20042;-77
2022/04/24 01:51:22;;;;;;;2.00;1.58;;;5.00;99.90;;;;;;4970608;28;20154;-76
2022/04/24 01:53:50;;;;;;;2.75;1.52;;;4.90;99.90;;;;;;4971080;28;20050;-77
2022/04/24 01:56:19;;;;;;;2.63;1.90;;;4.90;99.90;;;;;;4969571;28;20422;-77
2022/04/24 01:58:46;;;;;;;2.00;1.90;;;4.90;99.90;;;;;;4967570;28;20068;-76
2022/04/24 02:01:14;;;;;;;2.38;1.80;;;4.90;99.90;;;;;;4959993;28;20059;-76
2022/04/24 02:03:41;;;;;;;3.20;2.63;;;4.90;99.90;;;;;;4972358;28;20537;-77
2022/04/24 02:06:08;;;;;;;3.08;1.75;;;4.90;99.90;;;;;;4969964;28;20225;-76
2022/04/24 02:08:36;;;;;;;3.05;2.10;;;4.80;99.90;;;;;;4971444;28;20054;-76
2022/04/24 02:11:06;;;;;;;4.28;1.90;;;4.80;99.90;;;;;;4954580;28;20145;-76
2022/04/24 02:13:35;;;;;;;3.83;2.17;;;4.80;99.90;;;;;;4963384;28;20074;-76
2022/04/24 02:16:03;;;;;;;3.95;2.58;;;4.80;99.90;;;;;;4969202;28;20071;-76
2022/04/24 02:18:31;;;;;;;4.53;2.72;;;4.80;99.90;;;;;;4969596;28;20447;-77
2022/04/24 02:20:58;;;;;;;5.40;2.72;;;4.80;99.90;;;;;;4970704;28;20101;-77
2022/04/24 02:23:27;;;;;;;4.30;3.15;;;4.70;99.90;;;;;;4966110;28;20051;-77
2022/04/24 02:25:55;;;;;;;6.88;3.10;;;4.80;99.90;;;;;;4935626;29;20051;-77
2022/04/24 02:28:22;;;;;;;7.57;3.53;;;4.80;99.90;;;;;;4940140;28;20426;-77
2022/04/24 02:30:51;;;;;;;27.63;9.57;;;4.80;99.90;;;;;;4972102;28;20463;-77
2022/04/24 02:33:18;;;;;;;10.15;5.00;;;4.80;99.90;;;;;;4970539;28;20562;-77
2022/04/24 02:35:46;;;;;;;9.95;3.92;;;4.70;99.90;;;;;;4972211;28;20055;-77
2022/04/24 02:38:13;;;;;;;15.82;6.47;;;4.80;99.90;;;;;;4971319;28;20078;-78
2022/04/24 02:40:41;;;;;;;8.75;4.50;;;4.70;99.90;;;;;;4972157;28;20094;-78
2022/04/24 02:43:08;;;;;;;7.00;3.75;;;4.60;99.90;;;;;;4984328;28;20054;-78
2022/04/24 02:45:36;;;;;;;8.23;4.00;;;4.60;99.90;;;;;;4969711;28;20046;-79
2022/04/24 02:48:06;;;;;;;8.48;3.28;;;4.60;99.90;;;;;;4954320;28;20158;-78
2022/04/24 02:50:33;;;;;;;9.82;4.20;;;4.60;99.90;;;;;;4970615;28;20047;-78
2022/04/24 02:53:01;;;;;;;6.25;3.72;;;4.60;99.90;;;;;;4970216;28;20240;-79
2022/04/24 02:55:28;;;;;;;5.80;3.58;;;4.60;99.90;;;;;;4972193;28;20534;-78
2022/04/24 02:57:56;;;;;;;5.53;3.08;;;4.60;99.90;;;;;;4954026;28;20106;-78
2022/04/24 03:00:32;;;;;;;9.25;3.75;;;4.70;99.90;;;;;;4952908;28;20137;-78
2022/04/24 03:03:00;;;;;;;10.55;3.72;;;4.70;99.90;;;;;;4974054;28;20078;-78
2022/04/24 03:05:28;;;;;;;3.97;2.60;;;4.70;99.90;;;;;;4973788;28;20109;-78
2022/04/24 03:07:56;;;;;;;7.18;3.22;;;4.80;99.90;;;;;;4973924;28;20046;-78
2022/04/24 03:10:23;;;;;;;6.13;3.10;;;4.80;99.90;;;;;;4970044;28;20047;-78
2022/04/24 03:12:50;;;;;;;6.63;2.92;;;4.80;99.90;;;;;;4972322;28;20483;-78
2022/04/24 03:15:18;;;;;;;4.53;3.20;;;4.80;99.90;;;;;;4975343;28;20498;-78
2022/04/24 03:17:46;;;;;;;7.85;4.13;;;4.80;99.90;;;;;;4972467;28;20371;-78
2022/04/24 03:20:14;;;;;;;6.18;3.20;;;4.80;99.90;;;;;;4975054;28;20043;-78
2022/04/24 03:22:43;;;;;;;6.82;3.42;;;4.90;99.90;;;;;;4975030;28;20503;-77
2022/04/24 03:25:11;;;;;;;5.15;2.50;;;4.90;99.90;;;;;;4975263;28;20061;-77
2022/04/24 03:27:39;;;;;;;6.13;2.97;;;4.90;99.90;;;;;;4987886;28;20054;-77
2022/04/24 03:30:10;;;;;;;3.90;2.42;;;4.90;99.90;;;;;;4975089;28;20141;-77
2022/04/24 03:32:38;;;;;;;4.38;2.38;;;5.00;99.90;;;;;;4974731;28;20047;-77
2022/04/24 03:35:09;;;;;;;7.68;3.15;;;5.00;99.90;;;;;;4975029;28;20141;-77
2022/04/24 03:37:38;;;;;;;4.10;2.53;;;5.00;99.90;;;;;;4988773;28;20515;-77
2022/04/24 03:40:08;;;;;;;6.47;3.40;;;5.00;99.90;;;;;;4969972;28;20587;-77
2022/04/24 03:42:37;;;;;;;4.53;2.25;;;5.00;99.90;;;;;;4973646;28;20070;-77
2022/04/24 03:45:06;;;;;;;4.53;2.92;;;5.10;99.90;;;;;;4973284;28;20081;-77
2022/04/24 03:47:34;;;;;;;5.50;3.55;;;5.10;99.90;;;;;;4974410;28;20145;-77
2022/04/24 03:50:01;;;;;;;4.55;2.42;;;5.10;99.90;;;;;;4974388;28;20046;-77
2022/04/24 03:52:30;;;;;;;5.85;3.35;;;5.10;99.90;;;;;;4972712;28;20050;-77
2022/04/24 03:54:58;;;;;;;22.77;8.93;;;5.10;99.90;;;;;;4956338;28;20050;-77
2022/04/24 03:57:27;;;;;;;33.22;13.82;;;5.10;99.90;;;;;;4974044;28;20439;-77
2022/04/24 03:59:54;;;;;;;36.70;18.70;;;5.20;99.90;;;;;;4973168;28;20459;-77
2022/04/24 04:02:21;;;;;;;37.60;19.35;;;5.20;99.90;;;;;;4968686;28;20051;-77
2022/04/24 04:04:49;;;;;;;38.05;21.67;;;5.20;99.90;;;;;;4966846;28;20051;-77
2022/04/24 04:07:16;;;;;;;42.30;24.45;;;5.20;99.90;;;;;;4961815;28;20458;-78
2022/04/24 04:09:44;;;;;;;40.22;25.65;;;5.30;99.90;;;;;;4974067;28;20606;-77
2022/04/24 04:12:12;;;;;;;42.58;25.63;;;5.30;99.90;;;;;;4966553;28;20122;-77
2022/04/24 04:14:41;;;;;;;34.97;22.02;;;5.40;99.90;;;;;;4954474;28;20058;-78
2022/04/24 04:17:09;;;;;;;33.20;19.70;;;5.50;99.90;;;;;;4959457;28;20103;-77
2022/04/24 04:19:36;;;;;;;24.60;16.83;;;5.60;99.90;;;;;;4973840;28;20414;-76
2022/04/24 04:22:04;;;;;;;25.08;15.70;;;5.60;99.90;;;;;;4972398;28;20463;-77
2022/04/24 04:24:34;;;;;;;21.50;13.55;;;5.60;99.90;;;;;;4973526;28;20046;-77
2022/04/24 04:27:01;;;;;;;19.92;12.85;;;5.60;99.90;;;;;;4973827;28;20062;-79
2022/04/24 04:29:29;;;;;;;21.13;14.35;;;5.70;99.90;;;;;;4972356;28;20550;-79
2022/04/24 04:31:58;;;;;;;26.70;16.17;;;5.70;99.90;;;;;;4972449;28;20066;-79
2022/04/24 04:34:25;;;;;;;22.38;13.85;;;5.70;99.90;;;;;;4971951;28;20534;-79
2022/04/24 04:36:53;;;;;;;18.88;13.68;;;5.70;99.90;;;;;;4974045;28;20066;-78
2022/04/24 04:39:20;;;;;;;19.63;15.02;;;5.70;99.90;;;;;;4971389;28;20496;-78
2022/04/24 04:41:48;;;;;;;17.55;12.68;;;5.80;99.90;;;;;;4972029;28;20063;-79
2022/04/24 04:44:15;;;;;;;22.08;12.00;;;6.00;99.90;;;;;;4970233;28;20051;-78
2022/04/24 04:46:43;;;;;;;20.50;10.98;;;6.10;99.90;;;;;;4973412;28;20085;-79
2022/04/24 04:49:12;;;;;;;25.35;12.23;;;6.20;99.90;;;;;;4970672;28;20142;-77
2022/04/24 04:51:39;;;;;;;16.30;11.13;;;6.30;99.90;;;;;;4988925;28;20078;-78
2022/04/24 04:54:07;;;;;;;15.27;10.90;;;6.30;99.90;;;;;;4943226;29;20499;-78
2022/04/24 04:56:34;;;;;;;18.13;11.75;;;6.40;99.90;;;;;;4953965;28;20051;-78
2022/04/24 04:59:02;;;;;;;23.23;13.32;;;6.40;99.90;;;;;;4955093;28;20050;-78
2022/04/24 05:01:29;;;;;;;20.52;14.15;;;6.40;99.90;;;;;;4970363;28;20057;-78
2022/04/24 05:03:58;;;;;;;22.95;14.32;;;6.40;99.90;;;;;;4973712;28;20050;-80
2022/04/24 05:06:27;;;;;;;27.00;16.10;;;6.40;99.90;;;;;;4971452;28;20138;-79
2022/04/24 05:08:55;;;;;;;17.40;12.57;;;6.40;99.90;;;;;;4954847;28;20478;-78
2022/04/24 05:11:22;;;;;;;18.35;13.25;;;6.40;99.90;;;;;;4988341;28;20147;-79
2022/04/24 05:13:50;;;;;;;18.73;12.63;;;6.40;99.90;;;;;;4970272;28;20046;-79
2022/04/24 05:16:17;;;;;;;15.60;8.80;;;6.40;99.90;;;;;;4967304;28;20065;-79
2022/04/24 05:18:45;;;;;;;12.00;7.97;;;6.50;99.90;;;;;;4968457;28;20043;-78
2022/04/24 05:21:12;;;;;;;12.57;7.85;;;6.50;99.90;;;;;;4971701;28;20058;-80
2022/04/24 05:23:44;;;;;;;7.25;5.18;;;6.60;99.90;;;;;;4982126;28;20142;-80
2022/04/24 05:26:12;;;;;;;5.82;4.13;;;6.50;99.90;;;;;;4988817;28;20193;-80
2022/04/24 05:28:40;;;;;;;7.13;3.47;;;6.50;99.90;;;;;;4986460;28;20038;-80
2022/04/24 05:31:08;;;;;;;15.05;3.40;;;6.60;99.90;;;;;;4984918;28;20519;-79
2022/04/24 05:33:36;;;;;;;4.18;2.60;;;6.70;99.90;;;;;;4977546;28;20511;-80
2022/04/24 05:36:04;;;;;;;3.83;2.65;;;6.70;99.90;;;;;;4973192;28;20093;-81
2022/04/24 05:38:32;;;;;;;4.07;2.60;;;6.80;99.90;;;;;;4972725;28;20507;-80
2022/04/24 05:41:01;;;;;;;5.32;2.47;;;6.90;99.90;;;;;;4972975;28;20110;-81
2022/04/24 05:43:29;;;;;;;8.20;2.60;;;7.10;99.90;;;;;;4966860;28;20054;-81
2022/04/24 05:45:57;;;;;;;3.60;2.78;;;7.10;99.90;;;;;;4951958;28;20061;-78
2022/04/24 05:48:25;;;;;;;5.55;3.00;;;7.20;99.90;;;;;;4972896;28;20051;-81
2022/04/24 05:50:53;;;;;;;5.72;3.20;;;7.30;99.90;;;;;;4971638;28;20066;-82
2022/04/24 05:53:21;;;;;;;2.63;2.42;;;7.40;99.90;;;;;;4969345;28;20053;-79
2022/04/24 05:55:48;;;;;;;6.32;2.40;;;7.50;99.90;;;;;;4968211;28;20065;-83
2022/04/24 05:58:17;;;;;;;2.65;2.45;;;7.60;99.90;;;;;;4968377;28;20423;-78
2022/04/24 06:00:45;;;;;;;4.55;2.25;;;7.70;99.90;;;;;;4970060;28;20055;-80
2022/04/24 06:03:12;;;;;;;2.97;2.40;;;7.80;99.90;;;;;;4976316;28;20144;-78
2022/04/24 06:05:40;;;;;;;3.67;2.08;;;7.90;99.90;;;;;;4979962;28;20116;-77
2022/04/24 06:08:08;;;;;;;5.20;2.13;;;8.10;99.90;;;;;;4973438;28;20581;-79
2022/04/24 06:10:36;;;;;;;4.97;2.45;;;8.30;99.90;;;;;;4966248;28;20074;-78
2022/04/24 06:13:03;;;;;;;3.20;2.90;;;8.40;99.90;;;;;;4974222;28;20139;-79
2022/04/24 06:15:32;;;;;;;5.05;2.65;;;8.50;99.90;;;;;;4972572;28;20059;-81
2022/04/24 06:18:03;;;;;;;4.25;3.50;;;8.70;99.90;;;;;;4954495;28;20097;-79
2022/04/24 06:20:31;;;;;;;5.15;3.17;;;8.80;99.90;;;;;;4971501;28;20050;-82
2022/04/24 06:23:02;;;;;;;6.03;4.18;;;8.90;99.90;;;;;;4970807;28;20093;-80
2022/04/24 06:25:33;;;;;;;5.53;3.58;;;9.00;99.90;;;;;;4971410;28;20046;-75
2022/04/24 06:28:01;;;;;;;5.20;3.90;;;9.10;99.90;;;;;;4970410;28;20126;-79
2022/04/24 06:30:33;;;;;;;3.55;2.58;;;9.30;99.90;;;;;;4995666;28;20038;-79
2022/04/24 06:33:01;;;;;;;3.78;2.10;;;9.60;99.90;;;;;;4956687;28;20073;-80
2022/04/24 06:35:29;;;;;;;2.20;2.03;;;10.00;99.90;;;;;;4955944;28;20118;-78
2022/04/24 06:37:57;;;;;;;5.38;2.00;;;10.50;99.90;;;;;;4966380;28;20450;-79
2022/04/24 06:40:26;;;;;;;3.47;2.60;;;10.80;99.90;;;;;;4975794;28;20090;-79
2022/04/24 06:42:56;;;;;;;5.53;2.72;;;10.80;99.90;;;;;;4973617;28;20054;-79
2022/04/24 06:45:27;;;;;;;3.65;2.60;;;10.60;99.90;;;;;;4957234;28;20055;-78
2022/04/24 06:47:58;;;;;;;8.40;2.72;;;10.40;99.90;;;;;;4975676;28;20485;-79
2022/04/24 06:50:28;;;;;;;6.72;2.83;;;10.30;99.90;;;;;;4979598;28;20046;-79
2022/04/24 06:53:01;;;;;;;3.47;2.90;;;10.30;99.90;;;;;;4989823;28;20049;-80
2022/04/24 06:55:30;;;;;;;6.95;3.45;;;10.50;99.90;;;;;;4983320;28;20070;-78
2022/04/24 06:58:00;;;;;;;4.18;3.20;;;10.90;99.90;;;;;;4983515;28;20053;-79
2022/04/24 07:00:30;;;;;;;4.38;2.78;;;11.50;99.90;;;;;;4994875;28;20046;-78
2022/04/24 07:03:00;;;;;;;3.45;2.63;;;12.10;99.90;;;;;;4994829;28;20058;-80
2022/04/24 07:05:29;;;;;;;3.63;2.25;;;12.30;99.90;;;;;;4972649;28;20054;-79
2022/04/24 07:07:56;;;;;;;4.65;2.13;;;12.60;99.00;;;;;;4958467;28;20106;-85
2022/04/24 07:10:24;;;;;;;4.05;2.50;;;13.00;96.70;;;;;;4974579;28;20050;-79
2022/04/24 07:12:56;;;;;;;7.18;2.47;;;13.20;94.40;;;;;;4980967;28;20051;-78
2022/04/24 07:15:25;;;;;;;2.90;2.70;;;13.10;95.30;;;;;;4978141;28;20050;-82
2022/04/24 07:17:53;;;;;;;3.75;2.55;;;13.00;94.70;;;;;;4979679;28;20051;-81
2022/04/24 07:20:22;;;;;;;6.15;3.30;;;12.80;95.20;;;;;;4974318;28;20055;-81
2022/04/24 07:22:52;;;;;;;7.00;2.53;;;12.70;96.10;;;;;;4988095;28;20051;-79
2022/04/24 07:25:21;;;;;;;15.95;3.42;;;12.60;95.60;;;;;;4986656;28;20153;-79
2022/04/24 07:27:49;;;;;;;3.70;3.05;;;12.60;95.90;;;;;;5007711;28;20050;-79
2022/04/24 07:30:19;;;;;;;5.57;2.72;;;12.50;95.80;;;;;;4982576;28;20129;-75
2022/04/24 07:32:49;;;;;;;4.65;2.35;;;12.40;98.00;;;;;;4975299;28;20062;-77
2022/04/24 07:35:19;;;;;;;3.28;2.97;;;12.60;97.00;;;;;;4972493;28;20042;-78
2022/04/24 07:37:49;;;;;;;4.03;2.60;;;12.80;95.60;;;;;;4986041;28;20432;-81
2022/04/24 07:40:19;;;;;;;4.50;2.80;;;13.10;94.60;;;;;;4993282;28;20050;-79
2022/04/24 07:42:49;;;;;;;5.20;2.47;;;13.40;92.40;;;;;;4985306;28;20054;-78
2022/04/24 07:45:22;;;;;;;4.07;2.50;;;13.50;92.00;;;;;;4990926;28;20145;-83
2022/04/24 07:47:55;;;;;;;2.85;2.58;;;13.70;91.00;;;;;;4979520;28;20206;-79
2022/04/24 07:50:25;;;;;;;5.80;3.08;;;14.20;88.90;;;;;;4977010;28;20051;-78
2022/04/24 07:52:54;;;;;;;8.15;3.10;;;14.40;85.00;;;;;;4966156;28;20080;-78
2022/04/24 07:55:24;;;;;;;4.97;2.50;;;14.10;84.50;;;;;;5000810;28;20069;-76
2022/04/24 07:57:54;;;;;;;7.95;3.10;;;13.90;86.50;;;;;;4981417;28;20070;-77
2022/04/24 08:00:27;;;;;;;4.97;2.50;;;13.50;87.70;;;;;;4985363;28;20057;-76
2022/04/24 08:02:57;;;;;;;;;;;13.00;89.20;;;;;;4971926;28;20050;-75
2022/04/24 08:05:26;;;;;;;16.33;3.30;;;12.70;92.30;;;;;;4986918;28;19976;-76
2022/04/24 08:07:57;;;;;;;8.35;3.28;;;12.50;92.90;;;;;;4983159;28;20484;-75
2022/04/24 08:10:28;;;;;;;5.63;2.80;;;12.30;94.20;;;;;;4983438;28;20406;-76
2022/04/24 08:12:56;;;;;;;5.22;3.05;;;12.00;96.00;;;;;;4992224;28;20089;-76
2022/04/24 08:15:24;;;;;;;11.95;2.97;;;11.90;97.60;;;;;;4978270;28;20157;-76
2022/04/24 08:17:52;;;;;;;5.20;2.80;;;11.80;98.90;;;;;;4982568;28;20508;-76
2022/04/24 08:20:20;;;;;;;5.72;3.33;;;11.80;98.90;;;;;;4998079;28;20101;-78
2022/04/24 08:22:50;;;;;;;5.25;3.00;;;11.70;99.20;;;;;;4989404;28;20054;-77
2022/04/24 08:25:22;;;;;;;8.40;3.13;;;11.70;99.10;;;;;;4992354;28;20050;-76
2022/04/24 08:27:51;;;;;;;5.15;2.55;;;11.80;98.70;;;;;;4992402;28;20061;-75
2022/04/24 08:30:21;;;;;;;4.60;3.40;;;11.90;99.30;;;;;;4975999;28;20054;-76
2022/04/24 08:32:50;;;;;;;7.20;2.60;;;12.10;97.80;;;;;;4991437;28;20050;-77
2022/04/24 08:35:20;;;;;;;5.82;2.97;;;12.30;97.00;;;;;;4991881;28;20054;-76
2022/04/24 08:37:49;;;;;;;9.88;2.40;;;12.80;94.20;;;;;;4992639;28;20042;-75
2022/04/24 08:40:20;;;;;;;5.00;2.60;;;13.50;92.10;;;;;;4993497;28;21074;-78
2022/04/24 08:42:48;;;;;;;3.65;2.85;;;14.50;87.00;;;;;;4992880;28;20423;-76
2022/04/24 08:45:17;;;;;;;6.18;2.50;;;15.20;79.60;;;;;;4984094;28;20047;-76
2022/04/24 08:47:46;;;;;;;6.07;2.55;;;16.00;74.70;;;;;;4981748;28;20545;-77
2022/04/24 08:50:14;;;;;;;6.05;2.60;;;16.40;71.70;;;;;;4980692;28;20055;-80
2022/04/24 08:52:44;;;;;;;6.50;2.40;;;16.80;68.40;;;;;;4970914;28;20046;-78
2022/04/24 08:55:12;;;;;;;5.75;2.53;;;17.10;66.80;;;;;;4967421;28;20051;-77
2022/04/24 08:57:41;;;;;;;10.40;2.78;;;17.60;65.00;;;;;;4954401;28;20062;-77
2022/04/24 09:00:11;;;;;;;5.53;3.38;;;17.80;62.30;;;;;;4953884;28;20063;-78
2022/04/24 09:02:38;;;;;;;7.65;2.75;;;17.30;62.50;;;;;;4954764;28;20137;-79
2022/04/24 09:05:07;;;;;;;4.15;2.83;;;17.20;63.20;;;;;;4966896;28;20185;-80
2022/04/24 09:07:36;;;;;;;7.30;2.60;;;17.00;62.60;;;;;;4982203;28;20046;-79
2022/04/24 09:10:09;;;;;;;6.05;2.20;;;16.80;63.50;;;;;;4983111;28;20079;-78
2022/04/24 09:12:37;;;;;;;4.72;2.25;;;16.80;63.50;;;;;;4959766;28;20317;-78
2022/04/24 09:15:09;;;;;;;9.35;3.55;;;16.80;63.10;;;;;;4964266;28;20059;-78
2022/04/24 09:17:38;;;;;;;6.93;2.83;;;17.20;62.90;;;;;;4966499;28;20079;-76
2022/04/24 09:20:19;;;;;;;3.80;2.25;;;17.60;61.10;;;;;;4971389;28;20050;-77
2022/04/24 09:22:48;;;;;;;6.40;2.75;;;18.30;60.40;;;;;;4975879;28;20063;-78
2022/04/24 09:25:15;;;;;;;7.55;2.60;;;19.20;58.20;;;;;;4965182;28;20043;-78
2022/04/24 09:27:43;;;;;;;4.72;2.50;;;19.90;56.10;;;;;;4982807;28;20138;-78
2022/04/24 09:30:20;;;;;;;3.88;2.40;;;20.20;54.70;;;;;;4982840;28;20071;-80
2022/04/24 09:33:02;;;;;;;4.10;2.38;;;20.50;54.00;;;;;;4967932;28;20581;-77
2022/04/24 09:35:32;;;;;;;5.78;2.78;;;20.90;52.40;;;;;;4977006;28;20454;-77
2022/04/24 09:38:10;;;;;;;6.32;2.42;;;21.10;52.90;;;;;;4986573;28;20061;-81
2022/04/24 09:40:45;;;;;;;5.75;2.22;;;21.30;51.90;;;;;;4982786;28;20108;-81
2022/04/24 09:43:32;;;;;;;11.57;2.95;;;21.60;51.40;;;;;;4989232;28;20050;-82
2022/04/24 09:46:02;;;;;;;18.20;2.85;;;21.80;50.60;;;;;;4988504;28;20065;-81
2022/04/24 09:48:30;;;;;;;10.75;2.85;;;22.00;49.80;;;;;;4989699;28;20145;-82
2022/04/24 09:51:01;;;;;;;12.38;2.50;;;22.30;49.10;;;;;;4985250;28;20086;-81
2022/04/24 09:53:32;;;;;;;7.82;2.33;;;22.40;48.60;;;;;;4990633;28;20046;-80
2022/04/24 09:56:02;;;;;;;6.95;2.33;;;22.20;48.90;;;;;;4981323;28;20080;-80
2022/04/24 09:58:30;;;;;;;5.57;2.30;;;22.00;48.90;;;;;;4990526;28;20145;-81
2022/04/24 10:00:58;;;;;;;7.43;2.30;;;22.00;48.20;;;;;;4980298;28;20101;-78
2022/04/24 10:03:27;;;;;;;13.43;2.60;;;22.10;48.90;;;;;;4989203;28;20057;-80
2022/04/24 10:06:15;;;;;;;10.93;2.42;;;22.20;48.30;;;;;;5001900;28;20062;-83
2022/04/24 10:09:04;;;;;;;11.32;2.35;;;22.20;48.40;;;;;;4969078;28;20507;-78
2022/04/24 10:11:53;;;;;;;17.88;2.47;;;22.60;47.80;;;;;;4981564;28;20061;-78
2022/04/24 10:14:21;;;;;;;7.07;2.15;;;23.10;47.00;;;;;;4970776;28;20141;-79
2022/04/24 10:17:38;;;;;;;8.80;2.42;;;23.20;46.40;;;;;;4957787;28;20514;-76
2022/04/24 10:20:50;;;;;;;4.78;2.58;;;23.10;46.30;;;;;;4968729;28;20055;-76
2022/04/24 10:23:29;;;;;;;8.93;2.30;;;22.60;47.00;;;;;;4968274;28;20093;-76
2022/04/24 10:25:56;;;;;;;5.18;2.60;;;22.40;47.30;;;;;;4969822;28;20510;-74
2022/04/24 10:28:29;;;;;;;55.85;4.20;;;22.00;47.60;;;;;;4970133;28;20055;-75
2022/04/24 10:31:01;;;;;;;9.05;2.50;;;21.80;48.10;;;;;;4970590;28;20097;-75
2022/04/24 10:33:32;;;;;;;5.00;2.10;;;21.60;48.30;;;;;;4970095;28;20078;-76
2022/04/24 10:36:05;;;;;;;7.93;2.53;;;21.50;48.40;;;;;;4971566;28;20062;-77
2022/04/24 10:38:46;;;;;;;5.47;2.10;;;21.40;48.30;;;;;;4971668;28;20173;-76
2022/04/24 10:41:18;;;;;;;7.60;1.98;;;21.10;49.30;;;;;;4971901;28;20055;-78
2022/04/24 10:43:48;;;;;;;5.50;2.22;;;20.70;49.80;;;;;;4971493;28;20061;-75
2022/04/24 10:46:18;;;;;;;9.77;1.98;;;20.60;50.00;;;;;;4986753;28;20062;-73
2022/04/24 10:48:47;;;;;;;17.83;2.85;;;20.70;50.10;;;;;;4969975;28;20582;-74
2022/04/24 10:51:29;;;;;;;9.15;2.80;;;20.50;49.40;;;;;;4969941;28;20059;-74
2022/04/24 10:54:00;;;;;;;6.25;1.92;;;19.90;50.40;;;;;;4970127;28;20109;-74
2022/04/24 10:56:29;;;;;;;18.67;2.58;;;19.70;51.20;;;;;;4971318;28;20492;-75
2022/04/24 10:59:08;;;;;;;10.02;2.50;;;19.60;51.20;;;;;;4971984;28;20054;-74
2022/04/24 11:01:36;;;;;;;10.73;2.38;;;19.70;51.80;;;;;;4971757;28;20046;-75
2022/04/24 11:04:08;;;;;;;9.02;2.40;;;19.70;51.20;;;;;;4971278;28;20089;-75
2022/04/24 11:06:38;;;;;;;13.10;2.95;;;19.50;52.00;;;;;;4970014;28;20059;-75
2022/04/24 11:09:11;;;;;;;9.10;2.70;;;19.30;51.70;;;;;;4970063;28;20049;-77
2022/04/24 11:11:48;;;;;;;10.82;2.85;;;18.80;52.50;;;;;;4970180;28;20098;-76
2022/04/24 11:14:21;;;;;;;13.02;2.58;;;18.50;53.20;;;;;;4971604;28;20062;-75
2022/04/24 11:16:50;;;;;;;9.98;2.60;;;18.40;53.70;;;;;;4971587;28;20051;-78
2022/04/24 11:19:29;;;;;;;8.93;2.47;;;18.50;53.50;;;;;;4972420;28;20091;-79
2022/04/24 11:22:00;;;;;;;14.60;2.35;;;18.20;53.90;;;;;;4967341;28;20062;-79
2022/04/24 11:24:31;;;;;;;11.05;2.30;;;18.70;54.00;;;;;;4971497;28;20515;-80
2022/04/24 11:27:03;;;;;;;12.02;2.42;;;20.30;51.90;;;;;;4975330;28;20102;-80
2022/04/24 11:29:32;;;;;;;12.98;2.45;;;21.70;49.10;;;;;;4975109;28;20055;-78
2022/04/24 11:32:00;;;;;;;8.10;2.85;;;22.90;47.40;;;;;;4975163;28;20138;-78
2022/04/24 11:34:28;;;;;;;10.20;2.20;;;23.80;45.40;;;;;;4975962;28;20063;-81
2022/04/24 11:36:59;;;;;;;8.38;2.22;;;24.30;44.90;;;;;;4971462;28;20093;-80
2022/04/24 11:39:29;;;;;;;6.83;2.20;;;24.60;44.30;;;;;;4972571;28;20069;-80
2022/04/24 11:41:58;;;;;;;15.95;2.35;;;24.70;43.30;;;;;;4970744;28;20051;-80
2022/04/24 11:50:15;;;;;;;11.35;2.90;;;22.60;45.40;;;;;;4973378;28;20392;-80
2022/04/24 11:52:46;;;;;;;11.20;2.33;;;20.50;47.80;;;;;;4989997;28;20051;-81
2022/04/24 11:55:16;;;;;;;3.55;2.20;;;18.80;50.80;;;;;;4974335;28;20150;-81
2022/04/24 11:57:44;;;;;;;7.13;2.20;;;17.90;52.70;;;;;;4974478;28;20149;-82
2022/04/24 12:00:18;;;;;;;6.45;2.42;;;18.60;53.00;;;;;;4974205;28;20066;-79
2022/04/24 12:02:46;;;;;;;8.48;2.33;;;20.10;50.70;;;;;;4974154;28;20050;-81
2022/04/24 12:05:13;;;;;;;7.25;1.90;;;21.30;48.20;;;;;;4974408;28;20538;-81
2022/04/24 12:07:41;;;;;;;3.85;2.00;;;22.00;47.20;;;;;;4974483;28;20142;-80
2022/04/24 12:10:12;;;;;;;4.78;2.10;;;22.90;45.90;;;;;;4974350;28;20051;-81
2022/04/24 12:12:47;;;;;;;3.03;2.03;;;23.20;44.90;;;;;;4974385;28;20065;-80
2022/04/24 12:15:16;;;;;;;15.40;3.03;;;23.20;45.40;;;;;;4974178;28;20543;-79
2022/04/24 12:17:50;;;;;;;9.18;1.88;;;23.30;44.40;;;;;;4973930;28;20142;-81
2022/04/24 12:20:18;;;;;;;7.05;2.42;;;22.80;45.00;;;;;;4973817;28;20117;-79
2022/04/24 12:22:46;;;;;;;9.85;2.40;;;22.40;45.30;;;;;;4973933;28;20055;-79
2022/04/24 12:25:18;;;;;;;9.05;2.55;;;21.90;46.20;;;;;;4973719;28;20051;-79
2022/04/24 12:27:53;;;;;;;12.45;2.70;;;21.40;47.20;;;;;;4972454;28;20078;-80
2022/04/24 12:30:21;;;;;;;16.67;2.58;;;21.60;47.20;;;;;;4973994;28;20062;-78
2022/04/24 12:32:48;;;;;;;8.02;2.65;;;21.30;47.20;;;;;;4973716;28;20057;-78
2022/04/24 12:35:30;;;;;;;13.63;3.00;;;20.60;47.80;;;;;;4971737;28;20061;-78
2022/04/24 12:37:58;;;;;;;8.35;2.30;;;19.60;49.70;;;;;;4973620;28;20492;-79
2022/04/24 12:40:27;;;;;;;4.05;1.65;;;18.90;50.90;;;;;;4973421;28;20047;-79
2022/04/24 12:42:55;;;;;;;5.50;2.20;;;18.20;52.30;;;;;;4971578;28;20051;-79
2022/04/24 12:45:25;;;;;;;8.85;3.13;;;17.60;53.50;;;;;;4970608;28;20043;-80
2022/04/24 12:47:53;;;;;;;14.65;2.90;;;17.10;54.50;;;;;;4969606;28;20055;-80
2022/04/24 12:50:20;;;;;;;9.95;2.38;;;16.80;55.90;;;;;;4973384;28;20121;-81
2022/04/24 12:52:48;;;;;;;9.93;3.20;;;16.80;56.00;;;;;;4962754;28;20070;-80
2022/04/24 12:55:16;;;;;;;10.35;2.67;;;16.60;55.70;;;;;;4965806;28;20129;-80
2022/04/24 12:57:45;;;;;;;10.88;2.25;;;16.30;56.30;;;;;;4971941;28;20050;-79
2022/04/24 13:00:14;;;;;;;8.32;2.28;;;16.00;57.30;;;;;;4972892;28;20081;-77
2022/04/24 13:02:42;;;;;;;9.30;2.83;;;15.80;57.60;;;;;;4992346;28;20042;-77
2022/04/24 13:05:10;;;;;;;8.32;2.58;;;15.40;58.20;;;;;;4991096;28;20573;-77
2022/04/24 13:07:38;;;;;;;14.02;2.55;;;15.20;59.00;;;;;;4971827;28;20085;-75